createdAt,value
2023-01-23T00:04:29.578Z,22.33
2023-01-23T00:09:32.372Z,20.63
2023-01-23T00:14:34.992Z,21.17
2023-01-23T00:19:37.764Z,21.63
2023-01-23T00:24:40.291Z,20.50
2023-01-23T00:29:42.802Z,19.47
2023-01-23T00:34:46.166Z,19.73
2023-01-23T00:39:51.232Z,19.23
2023-01-23T00:44:53.772Z,20.50
2023-01-23T00:49:57.805Z,18.90
2023-01-23T00:55:00.294Z,18.30
2023-01-23T01:00:03.558Z,18.80
2023-01-23T01:05:06.861Z,22.60
2023-01-23T01:10:10.384Z,18.80
2023-01-23T01:15:13.921Z,16.93
2023-01-23T01:20:16.696Z,19.93
2023-01-23T01:25:19.367Z,19.03
2023-01-23T01:30:22.346Z,22.90
2023-01-23T01:35:25.621Z,20.30
2023-01-23T01:40:33.870Z,21.97
2023-01-23T01:46:07.564Z,19.70
2023-01-23T01:51:45.144Z,25.40
2023-01-23T01:57:00.236Z,16.53
2023-01-23T02:02:11.254Z,25.40
2023-01-23T02:07:37.435Z,17.13
2023-01-23T02:12:40.777Z,17.57
2023-01-23T02:17:45.551Z,20.70
2023-01-23T02:23:19.583Z,18.83
2023-01-23T02:28:22.349Z,14.10
2023-01-23T02:33:26.448Z,12.90
2023-01-23T02:38:44.255Z,21.40
2023-01-23T02:43:50.818Z,15.93
2023-01-23T02:48:54.319Z,21.23
2023-01-23T02:53:57.040Z,18.50
2023-01-23T02:59:17.964Z,18.90
2023-01-23T03:04:20.757Z,15.70
2023-01-23T03:09:23.431Z,16.43
2023-01-23T03:14:26.087Z,20.20
2023-01-23T03:19:29.058Z,16.77
2023-01-23T03:24:33.677Z,20.27
2023-01-23T03:29:54.718Z,18.20
2023-01-23T03:34:57.652Z,15.63
2023-01-23T03:40:19.225Z,17.07
2023-01-23T03:45:22.307Z,12.60
2023-01-23T03:50:25.231Z,17.73
2023-01-23T03:55:27.760Z,17.33
2023-01-23T04:00:30.497Z,16.03
2023-01-23T04:05:40.204Z,17.07
2023-01-23T04:10:42.797Z,14.03
2023-01-23T04:15:52.037Z,17.63
2023-01-23T04:20:55.422Z,21.17
2023-01-23T04:25:59.195Z,18.73
2023-01-23T04:31:02.643Z,15.80
2023-01-23T04:36:09.404Z,19.07
2023-01-23T04:41:19.958Z,13.83
2023-01-23T04:46:23.228Z,22.43
2023-01-23T04:51:33.486Z,18.37
2023-01-23T04:56:36.060Z,17.60
2023-01-23T05:01:40.576Z,17.77
2023-01-23T05:06:43.563Z,23.23
2023-01-23T05:11:47.220Z,20.83
2023-01-23T05:16:49.868Z,19.40
2023-01-23T05:22:05.359Z,16.97
2023-01-23T05:27:07.911Z,21.17
2023-01-23T05:32:14.361Z,17.83
2023-01-23T05:37:20.610Z,24.57
2023-01-23T05:42:27.664Z,25.17
2023-01-23T05:47:49.239Z,23.47
2023-01-23T05:52:53.351Z,24.27
2023-01-23T05:57:55.928Z,24.67
2023-01-23T06:03:01.637Z,22.80
2023-01-23T06:08:32.675Z,22.40
2023-01-23T06:13:36.176Z,25.73
2023-01-23T06:18:39.129Z,26.77
2023-01-23T06:23:41.707Z,26.60
2023-01-23T06:28:45.433Z,36.37
2023-01-23T06:33:51.955Z,44.97
2023-01-23T06:38:57.663Z,45.47
2023-01-23T06:44:07.823Z,32.13
2023-01-23T06:49:11.188Z,24.13
2023-01-23T06:54:14.045Z,17.67
2023-01-23T06:59:16.838Z,23.80
2023-01-23T07:04:20.427Z,38.77
2023-01-23T07:09:26.106Z,26.63
2023-01-23T07:14:40.884Z,37.40
2023-01-23T07:19:45.405Z,22.33
2023-01-23T07:24:51.325Z,22.80
2023-01-23T07:29:53.852Z,28.27
2023-01-23T07:34:56.401Z,43.17
2023-01-23T07:39:58.984Z,28.47
2023-01-23T07:45:01.640Z,23.63
2023-01-23T07:50:04.413Z,24.17
2023-01-23T07:55:07.319Z,17.87
2023-01-23T08:00:10.987Z,20.53
2023-01-23T08:05:16.269Z,26.17
2023-01-23T08:10:19.443Z,21.40
2023-01-23T08:15:22.098Z,27.50
2023-01-23T08:20:25.262Z,22.37
2023-01-23T08:25:27.989Z,22.40
2023-01-23T08:30:30.499Z,23.97
2023-01-23T08:35:32.996Z,23.30
2023-01-23T08:40:35.517Z,24.07
2023-01-23T08:45:38.090Z,23.83
2023-01-23T08:50:40.603Z,26.93
2023-01-23T08:55:43.485Z,25.37
2023-01-23T09:00:47.602Z,20.03
2023-01-23T09:05:50.211Z,28.50
2023-01-23T09:10:52.740Z,22.17
2023-01-23T09:15:55.583Z,25.40
2023-01-23T09:20:58.293Z,21.53
2023-01-23T09:26:09.560Z,25.13
2023-01-23T09:31:13.801Z,30.27
2023-01-23T09:36:16.405Z,23.13
2023-01-23T09:41:26.851Z,26.23
2023-01-23T09:46:37.823Z,19.47
2023-01-23T09:51:49.367Z,26.50
2023-01-23T09:56:52.909Z,30.03
2023-01-23T10:01:56.402Z,20.47
2023-01-23T10:07:08.469Z,31.80
2023-01-23T10:12:44.110Z,16.13
2023-01-23T10:17:52.747Z,37.07
2023-01-23T10:23:41.116Z,32.10
2023-01-23T10:28:44.504Z,25.83
2023-01-23T10:34:05.436Z,35.77
2023-01-23T10:39:20.386Z,30.73
2023-01-23T10:44:23.134Z,40.87
2023-01-23T10:49:37.775Z,36.70
2023-01-23T10:54:47.181Z,41.77
2023-01-23T11:00:18.023Z,20.20
2023-01-23T11:05:52.140Z,41.77
2023-01-23T11:11:14.885Z,40.40
2023-01-23T11:16:23.249Z,39.30
2023-01-23T11:21:32.751Z,36.90
2023-01-23T11:26:37.190Z,40.10
2023-01-23T11:31:41.931Z,42.07
2023-01-23T11:37:12.650Z,46.77
2023-01-23T11:42:17.223Z,38.20
2023-01-23T11:47:40.088Z,46.20
2023-01-23T11:52:59.967Z,40.27
2023-01-23T11:58:30.917Z,41.50
2023-01-23T12:03:57.652Z,42.53
2023-01-23T12:09:12.389Z,42.00
2023-01-23T12:14:34.307Z,41.93
2023-01-23T12:20:05.302Z,44.27
2023-01-23T12:25:35.173Z,41.50
2023-01-23T12:31:21.691Z,49.77
2023-01-23T12:37:10.245Z,47.37
2023-01-23T12:42:24.386Z,49.23
2023-01-23T12:48:03.679Z,48.30
2023-01-23T12:53:12.466Z,49.60
2023-01-23T12:58:18.482Z,49.43
2023-01-23T13:03:46.615Z,48.93
2023-01-23T13:09:19.599Z,53.03
2023-01-23T13:14:39.567Z,57.27
2023-01-23T13:20:08.835Z,54.00
2023-01-23T13:25:18.835Z,47.53
2023-01-23T13:30:25.265Z,37.93
2023-01-23T13:35:39.791Z,48.50
2023-01-23T13:41:02.301Z,51.77
2023-01-23T13:46:04.955Z,41.80
2023-01-23T14:24:26.800Z,44.33
2023-01-23T14:29:29.459Z,40.63
2023-01-23T14:34:40.201Z,35.90
2023-01-23T14:39:53.185Z,52.27
2023-01-23T14:44:58.692Z,53.50
2023-01-23T14:50:02.958Z,57.73
2023-01-23T14:55:30.386Z,52.67
2023-01-23T15:00:35.771Z,57.53
2023-01-23T15:05:41.033Z,55.73
2023-01-23T15:10:43.548Z,54.80
2023-01-23T15:15:49.950Z,62.37
2023-01-23T15:20:57.599Z,57.63
2023-01-23T15:26:14.986Z,57.97
2023-01-23T15:31:41.388Z,41.17
2023-01-23T15:36:46.843Z,48.30
2023-01-23T15:41:54.861Z,61.00
2023-01-23T15:47:01.190Z,60.50
2023-01-23T15:52:24.009Z,60.57
2023-01-23T15:57:27.055Z,61.70
2023-01-23T16:02:32.329Z,62.60
2023-01-23T16:07:41.596Z,70.33
2023-01-23T16:12:46.898Z,61.33
2023-01-23T16:17:50.162Z,44.73
2023-01-23T16:22:56.468Z,59.33
2023-01-23T16:27:59.236Z,55.63
2023-01-23T16:33:02.063Z,63.90
2023-01-23T16:38:05.727Z,97.27
2023-01-23T16:43:09.433Z,99.57
2023-01-23T16:48:21.534Z,58.00
2023-01-23T16:53:36.900Z,46.80
2023-01-23T16:58:41.171Z,87.93
2023-01-23T17:03:44.982Z,54.80
2023-01-23T17:08:48.024Z,68.87
2023-01-23T17:14:00.792Z,92.23
2023-01-23T17:19:10.609Z,95.03
2023-01-23T17:24:16.790Z,98.30
2023-01-23T17:29:20.093Z,97.13
2023-01-23T17:34:24.553Z,104.27
2023-01-23T17:39:27.049Z,112.33
2023-01-23T17:44:29.603Z,178.20
2023-01-23T17:49:32.898Z,170.53
2023-01-23T17:54:36.973Z,108.27
2023-01-23T17:59:39.467Z,81.43
2023-01-23T18:04:42.048Z,59.20
2023-01-23T18:09:44.524Z,57.93
2023-01-23T18:14:50.066Z,79.77
2023-01-23T18:19:53.988Z,76.40
2023-01-23T18:24:56.801Z,69.17
2023-01-23T18:30:18.297Z,56.40
2023-01-23T18:35:56.236Z,66.77
2023-01-23T18:40:58.902Z,58.67
2023-01-23T18:46:02.084Z,64.07
2023-01-23T18:51:19.856Z,46.03
2023-01-23T18:56:42.382Z,60.43
2023-01-23T19:02:01.551Z,57.73
2023-01-23T19:07:10.480Z,58.93
2023-01-23T19:12:31.587Z,67.23
2023-01-23T19:17:43.371Z,55.83
2023-01-23T19:22:53.419Z,55.67
2023-01-23T19:27:59.104Z,48.23
2023-01-23T19:33:02.282Z,54.43
2023-01-23T19:38:05.291Z,54.50
2023-01-23T19:43:16.929Z,59.97
2023-01-23T19:48:20.180Z,51.10
2023-01-23T19:53:24.149Z,52.00
2023-01-23T19:58:27.500Z,48.97
2023-01-23T20:03:30.737Z,53.47
2023-01-23T20:08:33.911Z,54.90
2023-01-23T20:13:37.317Z,47.83
2023-01-23T20:18:41.715Z,43.93
2023-01-23T20:23:45.554Z,51.10
2023-01-23T20:28:55.942Z,54.00
2023-01-23T20:33:59.366Z,50.27
2023-01-23T20:39:03.807Z,56.10
2023-01-23T20:44:07.191Z,63.73
2023-01-23T20:49:14.336Z,55.60
2023-01-23T20:54:18.214Z,51.17
2023-01-23T20:59:24.060Z,56.03
2023-01-23T21:04:32.300Z,52.40
2023-01-23T21:09:35.348Z,56.87
2023-01-23T21:14:39.640Z,58.07
2023-01-23T21:19:43.040Z,52.63
2023-01-23T21:24:46.060Z,53.87
2023-01-23T21:29:49.067Z,61.00
2023-01-23T21:34:53.748Z,54.40
2023-01-23T21:39:56.443Z,50.70
2023-01-23T21:44:59.172Z,55.73
2023-01-23T21:50:01.859Z,51.87
2023-01-23T21:55:04.890Z,53.97
2023-01-23T22:00:26.828Z,54.77
2023-01-23T22:05:29.315Z,52.77
2023-01-23T22:10:32.388Z,57.03
2023-01-23T22:15:34.953Z,52.43
2023-01-23T22:20:40.407Z,52.47
2023-01-23T22:25:42.909Z,48.07
2023-01-23T22:30:45.482Z,45.67
2023-01-23T22:35:48.352Z,50.47
2023-01-23T22:41:02.218Z,46.03
2023-01-23T22:46:13.857Z,48.93
2023-01-23T22:51:24.670Z,36.23
2023-01-23T22:56:28.433Z,41.97
2023-01-23T23:01:31.042Z,46.70
2023-01-23T23:06:33.527Z,45.00
2023-01-23T23:11:37.419Z,46.87
2023-01-23T23:16:40.980Z,48.77
2023-01-23T23:21:43.433Z,41.83
2023-01-23T23:26:46.101Z,44.77
2023-01-23T23:31:51.744Z,42.47
2023-01-23T23:36:54.355Z,37.27
2023-01-23T23:41:56.823Z,40.23
2023-01-23T23:46:59.420Z,42.93
2023-01-23T23:52:01.889Z,42.20
2023-01-23T23:57:04.485Z,46.27
